Terminal Aerodrome Forecast
Issued by NWS Mobile, AL

Home | Current Version | Previous Version | Text Only | Print | Product List | Glossary On
Versions: 1 2 3 4 5 6 7 8 9 10 11 12 13 14 15 16 17 18 19 20
000
FTUS44 KMOB 061140
TAFPNS
TAF
KPNS 061140Z 0612/0712 25015G23KT P6SM BKN010
     FM061500 28016G24KT P6SM BKN015
     FM062200 32009KT P6SM BKN015=

USA.gov is the U.S. government's official web portal to all federal, state and local government web resources and services.